Time;durP1;ratioP1;P1;durP2;ratioP2;P2;SDS_P1;SDS_P2;PMS_P1;PMS_P2;Temp;Humidity;BMP_temperature;BMP_pressure;BME280_temperature;BME280_humidity;BME280_pressure;Samples;Min_cycle;Max_cycle;Signal;HPM_P1;HPM_P2
2022/03/21 00:02:13;;;;;;;63.10;46.25;;;5.60;99.90;;;;;;5008014;28;20036;-79
2022/03/21 00:04:39;;;;;;;69.10;48.65;;;5.70;99.90;;;;;;4945115;28;142195;-79
2022/03/21 00:07:05;;;;;;;64.78;46.90;;;5.60;99.90;;;;;;4999512;28;20061;-80
2022/03/21 00:09:31;;;;;;;65.45;45.65;;;5.60;99.90;;;;;;4943058;28;221746;-80
2022/03/21 00:11:58;;;;;;;67.13;47.55;;;5.60;99.90;;;;;;4984696;28;20054;-78
2022/03/21 00:14:24;;;;;;;65.75;45.15;;;5.60;99.90;;;;;;4961112;28;197932;-78
2022/03/21 00:16:51;;;;;;;64.35;45.97;;;5.60;99.90;;;;;;4994328;28;20295;-79
2022/03/21 00:19:17;;;;;;;62.90;45.95;;;5.60;99.90;;;;;;5017629;28;142303;-79
2022/03/21 00:21:43;;;;;;;67.20;45.85;;;5.60;99.90;;;;;;4961199;28;20474;-79
2022/03/21 00:24:09;;;;;;;61.65;46.25;;;5.50;99.90;;;;;;4973099;28;268997;-79
2022/03/21 00:26:35;;;;;;;66.20;45.65;;;5.50;99.90;;;;;;4949963;28;20554;-79
2022/03/21 00:29:01;;;;;;;64.78;46.17;;;5.50;99.90;;;;;;4989988;28;248385;-80
2022/03/21 00:31:28;;;;;;;64.97;45.67;;;5.50;99.90;;;;;;4950285;28;20050;-79
2022/03/21 00:33:54;;;;;;;64.63;44.20;;;5.50;99.90;;;;;;4985210;28;263990;-79
2022/03/21 00:36:21;;;;;;;62.00;43.75;;;5.50;99.90;;;;;;4943145;28;20058;-79
2022/03/21 00:38:47;;;;;;;59.08;42.58;;;5.40;99.90;;;;;;4977744;28;254860;-80
2022/03/21 00:41:13;;;;;;;57.17;39.40;;;5.40;99.90;;;;;;4980665;28;20533;-80
2022/03/21 00:43:39;;;;;;;58.72;41.85;;;5.40;99.90;;;;;;5003655;28;20515;-80
2022/03/21 00:46:06;;;;;;;54.92;40.40;;;5.40;99.90;;;;;;4956474;28;65386;-79
2022/03/21 00:48:32;;;;;;;59.08;43.35;;;5.40;99.90;;;;;;4987951;28;20061;-79
2022/03/21 00:50:59;;;;;;;62.75;41.35;;;5.40;99.90;;;;;;4944964;28;179587;-79
2022/03/21 00:53:25;;;;;;;60.50;43.15;;;5.40;99.90;;;;;;4996777;28;20050;-79
2022/03/21 00:55:52;;;;;;;59.55;42.50;;;5.30;99.90;;;;;;4960596;28;267815;-79
2022/03/21 00:58:19;;;;;;;58.55;40.72;;;5.30;99.90;;;;;;5006023;28;20065;-79
2022/03/21 01:00:46;;;;;;;57.55;40.20;;;5.30;99.90;;;;;;4982221;28;278731;-80
2022/03/21 01:03:13;;;;;;;60.63;39.88;;;5.30;99.90;;;;;;5003687;28;20054;-79
2022/03/21 01:05:40;;;;;;;58.95;39.67;;;5.30;99.90;;;;;;4941668;28;212041;-79
2022/03/21 01:08:06;;;;;;;58.70;40.78;;;5.30;99.90;;;;;;5006233;28;20069;-79
2022/03/21 01:10:33;;;;;;;55.00;38.92;;;5.30;99.90;;;;;;4967205;28;148111;-79
2022/03/21 01:13:00;;;;;;;56.35;38.45;;;5.30;99.90;;;;;;5010383;28;20054;-78
2022/03/21 01:15:28;;;;;;;56.83;37.88;;;5.30;99.90;;;;;;4970517;28;38593;-79
2022/03/21 01:17:57;;;;;;;53.20;37.58;;;5.30;99.90;;;;;;4998738;28;20061;-79
2022/03/21 01:20:23;;;;;;;53.58;36.38;;;5.30;99.90;;;;;;4964938;28;189832;-79
2022/03/21 01:22:50;;;;;;;52.65;36.60;;;5.30;99.90;;;;;;4985736;28;20058;-79
2022/03/21 01:25:17;;;;;;;55.20;37.20;;;5.30;99.90;;;;;;4955612;28;106063;-79
2022/03/21 01:27:44;;;;;;;50.22;35.47;;;5.30;99.90;;;;;;4983994;28;20507;-79
2022/03/21 01:30:12;;;;;;;54.83;36.17;;;5.20;99.90;;;;;;4947338;28;185921;-79
2022/03/21 01:32:42;;;;;;;54.60;35.58;;;5.20;99.90;;;;;;4995604;28;20058;-79
2022/03/21 01:35:10;;;;;;;56.45;35.55;;;5.20;99.90;;;;;;4963140;28;264210;-79
2022/03/21 01:37:36;;;;;;;51.28;34.40;;;5.10;99.90;;;;;;4997806;28;20072;-79
2022/03/21 01:40:03;;;;;;;50.28;33.58;;;5.10;99.90;;;;;;4958930;28;101518;-79
2022/03/21 01:42:29;;;;;;;49.00;33.97;;;5.10;99.90;;;;;;5005923;28;20046;-79
2022/03/21 01:44:57;;;;;;;52.42;33.22;;;5.10;99.90;;;;;;4972870;28;160180;-79
2022/03/21 01:47:24;;;;;;;47.72;32.35;;;5.00;99.90;;;;;;4993262;28;20530;-79
2022/03/21 01:49:51;;;;;;;53.28;33.67;;;4.90;99.90;;;;;;4956358;28;73928;-79
2022/03/21 01:52:20;;;;;;;54.25;33.42;;;4.90;99.90;;;;;;4988870;28;20050;-79
2022/03/21 01:57:33;;;;;;;44.15;31.25;;;4.90;99.90;;;;;;5000214;28;20045;-77
2022/03/21 02:00:00;;;;;;;49.80;30.52;;;4.80;99.90;;;;;;4960740;28;193709;-76
2022/03/21 02:02:26;;;;;;;43.83;30.88;;;4.80;99.90;;;;;;4991369;28;20267;-76
2022/03/21 02:04:52;;;;;;;47.17;30.73;;;4.70;99.90;;;;;;4938360;28;166581;-77
2022/03/21 02:07:18;;;;;;;47.72;31.80;;;4.70;99.90;;;;;;4994419;28;20334;-77
2022/03/21 02:09:45;;;;;;;45.35;30.15;;;4.70;99.90;;;;;;4960291;28;20533;-77
2022/03/21 02:12:12;;;;;;;46.58;30.67;;;4.70;99.90;;;;;;4994851;28;20050;-77
2022/03/21 02:14:39;;;;;;;45.65;30.08;;;4.60;99.90;;;;;;4942632;28;119929;-77
2022/03/21 02:17:06;;;;;;;45.80;29.60;;;4.50;99.90;;;;;;4991515;28;20053;-77
2022/03/21 02:19:36;;;;;;;40.58;28.23;;;4.50;99.90;;;;;;4954778;28;255256;-76
2022/03/21 02:22:35;;;;;;;48.55;29.20;;;4.40;99.90;;;;;;4979880;28;20050;-77
2022/03/21 02:25:09;;;;;;;52.97;28.35;;;4.40;99.90;;;;;;4952881;28;157634;-77
2022/03/21 02:27:37;;;;;;;46.80;27.55;;;4.40;99.90;;;;;;4987355;28;20522;-76
2022/03/21 02:30:04;;;;;;;45.08;29.30;;;4.30;99.90;;;;;;4960705;28;125494;-77
2022/03/21 02:32:30;;;;;;;45.80;28.58;;;4.40;99.90;;;;;;4994224;28;20053;-76
2022/03/21 02:34:58;;;;;;;41.65;27.15;;;4.30;99.90;;;;;;4962697;28;83260;-76
2022/03/21 02:37:25;;;;;;;42.90;25.95;;;4.30;99.90;;;;;;4994807;28;20065;-76
2022/03/21 02:39:54;;;;;;;42.42;25.67;;;4.20;99.90;;;;;;4955300;28;177193;-76
2022/03/21 02:42:20;;;;;;;42.40;26.30;;;4.20;99.90;;;;;;4981251;28;20077;-76
2022/03/21 02:44:46;;;;;;;39.85;25.42;;;4.20;99.90;;;;;;4953254;28;134852;-76
2022/03/21 02:47:12;;;;;;;42.30;26.40;;;4.20;99.90;;;;;;4976406;28;20504;-76
2022/03/21 02:49:38;;;;;;;43.85;25.35;;;4.30;99.90;;;;;;4961442;28;101980;-77
2022/03/21 02:52:06;;;;;;;41.75;25.17;;;4.20;99.90;;;;;;4990504;28;20207;-77
2022/03/21 02:54:33;;;;;;;41.42;24.83;;;4.20;99.90;;;;;;4962174;28;114358;-76
2022/03/21 02:57:01;;;;;;;43.20;24.05;;;4.20;99.90;;;;;;4975546;28;20062;-76
2022/03/21 02:59:27;;;;;;;43.75;23.27;;;4.20;99.90;;;;;;4955912;28;128862;-76
2022/03/21 03:01:54;;;;;;;38.03;22.25;;;4.10;99.90;;;;;;4984634;28;20062;-76
2022/03/21 03:04:21;;;;;;;45.08;23.98;;;4.10;99.90;;;;;;4956991;28;238147;-76
2022/03/21 03:06:47;;;;;;;38.47;22.98;;;4.00;99.90;;;;;;4961904;28;20049;-76
2022/03/21 03:09:13;;;;;;;37.15;23.30;;;4.00;99.90;;;;;;4982641;28;74299;-76
2022/03/21 03:11:40;;;;;;;40.50;22.92;;;4.00;99.90;;;;;;4955651;28;20053;-76
2022/03/21 03:14:07;;;;;;;38.08;23.13;;;4.00;99.90;;;;;;4983652;28;257068;-76
2022/03/21 03:16:34;;;;;;;37.30;22.05;;;3.90;99.90;;;;;;4958676;28;20057;-76
2022/03/21 03:19:00;;;;;;;37.03;22.55;;;3.90;99.90;;;;;;4986635;28;261974;-76
2022/03/21 03:21:30;;;;;;;38.45;21.65;;;3.90;99.90;;;;;;4960588;28;20404;-76
2022/03/21 03:23:59;;;;;;;40.67;22.20;;;3.90;99.90;;;;;;4982701;28;260526;-77
2022/03/21 03:26:25;;;;;;;37.55;22.05;;;3.80;99.90;;;;;;4957193;28;20416;-77
2022/03/21 03:28:51;;;;;;;39.00;22.33;;;3.80;99.90;;;;;;4983123;28;254149;-74
2022/03/21 03:31:18;;;;;;;39.47;21.45;;;3.80;99.90;;;;;;4957825;28;20061;-75
2022/03/21 03:33:45;;;;;;;36.25;21.38;;;3.70;99.90;;;;;;5002791;28;20077;-76
2022/03/21 03:36:12;;;;;;;37.75;21.40;;;3.70;99.90;;;;;;4950547;28;46249;-76
2022/03/21 03:38:39;;;;;;;38.65;23.08;;;3.70;99.90;;;;;;5000530;28;20049;-76
2022/03/21 03:41:05;;;;;;;36.28;21.27;;;3.70;99.90;;;;;;4947569;28;146731;-76
2022/03/21 03:43:31;;;;;;;35.17;22.02;;;3.60;99.90;;;;;;4999537;28;20042;-76
2022/03/21 03:45:58;;;;;;;36.30;21.20;;;3.60;99.90;;;;;;4962258;28;20041;-76
2022/03/21 03:48:25;;;;;;;34.75;20.45;;;3.60;99.90;;;;;;4998756;28;20045;-76
2022/03/21 03:50:51;;;;;;;41.65;22.95;;;3.60;99.90;;;;;;4947959;28;40232;-76
2022/03/21 03:53:18;;;;;;;39.13;22.38;;;3.60;99.90;;;;;;5004585;28;20503;-76
2022/03/21 03:55:44;;;;;;;38.13;21.50;;;3.50;99.90;;;;;;4953466;28;61216;-76
2022/03/21 03:58:10;;;;;;;43.85;22.58;;;3.50;99.90;;;;;;4998012;28;20521;-76
2022/03/21 04:00:36;;;;;;;39.20;21.67;;;3.50;99.90;;;;;;4972735;28;268656;-76
2022/03/21 04:05:49;;;;;;;37.10;21.27;;;3.50;99.90;;;;;;4930264;28;99726;-76
2022/03/21 04:08:16;;;;;;;41.78;22.65;;;3.40;99.90;;;;;;4985349;28;20053;-76
2022/03/21 04:10:42;;;;;;;40.90;21.85;;;3.40;99.90;;;;;;4967557;28;80634;-76
2022/03/21 04:13:08;;;;;;;36.85;21.85;;;3.40;99.90;;;;;;5003373;28;20407;-76
2022/03/21 04:15:34;;;;;;;40.60;22.15;;;3.40;99.90;;;;;;4947420;28;80228;-75
2022/03/21 04:18:07;;;;;;;40.63;22.05;;;3.40;99.90;;;;;;4994574;28;20061;-76
2022/03/21 04:20:36;;;;;;;37.38;21.83;;;3.40;99.90;;;;;;4967996;28;47259;-76
2022/03/21 04:23:03;;;;;;;36.95;21.38;;;3.30;99.90;;;;;;5001674;28;20054;-75
2022/03/21 04:25:30;;;;;;;41.47;22.90;;;3.30;99.90;;;;;;4954578;28;128624;-76
2022/03/21 04:27:56;;;;;;;38.60;22.23;;;3.30;99.90;;;;;;4989401;28;20077;-76
2022/03/21 04:30:23;;;;;;;39.20;21.73;;;3.30;99.90;;;;;;4957777;28;160785;-76
2022/03/21 04:32:50;;;;;;;35.15;21.25;;;3.30;99.90;;;;;;4997288;28;20057;-76
2022/03/21 04:35:16;;;;;;;39.63;22.63;;;3.30;99.90;;;;;;4961172;28;50816;-76
2022/03/21 04:37:42;;;;;;;43.70;21.50;;;3.20;99.90;;;;;;4981383;28;20057;-76
2022/03/21 04:40:10;;;;;;;37.42;22.15;;;3.20;99.90;;;;;;4947407;28;21886;-75
2022/03/21 04:42:37;;;;;;;35.58;21.38;;;3.20;99.90;;;;;;4997030;28;20060;-75
2022/03/21 04:45:04;;;;;;;39.65;22.20;;;3.20;99.90;;;;;;4951523;28;167736;-75
2022/03/21 04:47:32;;;;;;;37.38;21.50;;;3.20;99.90;;;;;;4989704;28;20061;-75
2022/03/21 04:49:59;;;;;;;40.00;22.65;;;3.20;99.90;;;;;;4943947;28;97181;-75
2022/03/21 04:52:26;;;;;;;41.63;21.63;;;3.10;99.90;;;;;;4992556;28;20438;-75
2022/03/21 04:54:52;;;;;;;37.58;22.15;;;3.10;99.90;;;;;;4956095;28;211817;-75
2022/03/21 04:57:22;;;;;;;36.60;20.15;;;3.10;99.90;;;;;;4994093;28;20061;-76
2022/03/21 04:59:49;;;;;;;34.28;21.63;;;3.10;99.90;;;;;;4940736;28;242447;-75
2022/03/21 05:02:16;;;;;;;37.30;21.52;;;3.00;99.90;;;;;;4995612;28;20072;-75
2022/03/21 05:04:42;;;;;;;36.63;21.05;;;3.00;99.90;;;;;;4924887;28;147982;-76
2022/03/21 05:07:19;;;;;;;40.20;21.02;;;3.00;99.90;;;;;;4988283;28;20068;-76
2022/03/21 05:09:45;;;;;;;36.30;21.20;;;3.00;99.90;;;;;;4960029;28;103882;-76
2022/03/21 05:12:12;;;;;;;37.25;21.15;;;2.90;99.90;;;;;;4991024;28;20050;-76
2022/03/21 05:14:38;;;;;;;40.30;22.15;;;2.90;99.90;;;;;;4945553;28;66304;-74
2022/03/21 05:17:05;;;;;;;36.95;20.30;;;2.90;99.90;;;;;;4973846;28;20065;-75
2022/03/21 05:19:35;;;;;;;34.13;20.30;;;2.80;99.90;;;;;;4957652;28;180500;-74
2022/03/21 05:22:05;;;;;;;35.92;20.63;;;2.70;99.90;;;;;;4983439;28;20057;-75
2022/03/21 05:35:52;;;;;;;39.58;21.88;;;2.60;99.90;;;;;;4998557;28;20057;-75
2022/03/21 05:38:18;;;;;;;37.33;21.42;;;2.60;99.90;;;;;;5007082;28;20050;-75
2022/03/21 05:40:44;;;;;;;41.72;22.63;;;2.60;99.90;;;;;;4958562;28;62885;-75
2022/03/21 05:43:11;;;;;;;43.55;23.67;;;2.50;99.90;;;;;;4982985;28;20054;-75
2022/03/21 05:45:37;;;;;;;39.13;23.40;;;2.50;99.90;;;;;;4963709;28;254847;-75
2022/03/21 05:50:47;;;;;;;44.55;23.15;;;2.50;99.90;;;;;;4958198;28;262581;-75
2022/03/21 05:53:14;;;;;;;45.95;23.33;;;2.50;99.90;;;;;;4979194;28;20057;-76
2022/03/21 05:55:40;;;;;;;44.17;24.35;;;2.50;99.90;;;;;;4931063;28;155059;-74
2022/03/21 05:58:06;;;;;;;45.65;24.85;;;2.50;99.90;;;;;;4979512;28;20053;-74
2022/03/21 06:00:34;;;;;;;41.17;23.67;;;2.50;99.90;;;;;;4947720;28;159264;-76
2022/03/21 06:03:01;;;;;;;44.03;22.80;;;2.50;99.90;;;;;;4994700;28;20058;-75
2022/03/21 06:05:27;;;;;;;48.08;24.42;;;2.60;99.90;;;;;;4942999;28;202406;-76
2022/03/21 06:07:54;;;;;;;41.30;22.38;;;2.60;99.90;;;;;;4997789;28;20050;-75
2022/03/21 06:10:20;;;;;;;48.40;25.10;;;2.60;99.90;;;;;;4962034;28;142688;-76
2022/03/21 06:12:48;;;;;;;47.42;24.92;;;2.60;99.90;;;;;;4995733;28;20695;-75
2022/03/21 06:15:14;;;;;;;43.72;22.73;;;2.60;99.90;;;;;;4950787;28;68822;-76
2022/03/21 06:17:42;;;;;;;41.75;22.75;;;2.70;99.90;;;;;;4989840;28;20069;-75
2022/03/21 06:20:12;;;;;;;48.00;24.98;;;2.70;99.90;;;;;;4939343;28;47393;-75
2022/03/21 06:22:38;;;;;;;44.85;24.88;;;2.70;99.90;;;;;;4996811;28;20054;-76
2022/03/21 06:25:06;;;;;;;42.17;23.38;;;2.70;99.90;;;;;;4954339;28;38897;-75
2022/03/21 06:27:37;;;;;;;43.33;24.98;;;2.70;99.90;;;;;;4987357;28;20049;-76
2022/03/21 06:30:08;;;;;;;50.15;24.80;;;2.70;99.90;;;;;;4955756;28;172372;-75
2022/03/21 06:32:35;;;;;;;48.65;24.45;;;2.70;99.90;;;;;;4988863;28;20062;-75
2022/03/21 06:35:03;;;;;;;43.13;26.58;;;2.80;99.90;;;;;;4959130;28;20442;-73
2022/03/21 06:37:33;;;;;;;46.40;28.13;;;2.80;99.90;;;;;;4991061;28;20062;-75
2022/03/21 06:39:59;;;;;;;41.95;25.42;;;2.80;99.90;;;;;;4934420;28;83431;-74
2022/03/21 06:42:25;;;;;;;52.97;27.08;;;2.90;99.90;;;;;;4978802;28;20049;-75
2022/03/21 06:44:52;;;;;;;45.15;25.80;;;3.00;99.90;;;;;;4938923;28;139081;-75
2022/03/21 06:47:20;;;;;;;44.63;25.95;;;3.00;99.90;;;;;;4983513;28;20053;-75
2022/03/21 06:49:47;;;;;;;50.22;28.75;;;3.00;99.90;;;;;;4944091;28;112851;-75
2022/03/21 06:52:14;;;;;;;50.97;27.13;;;3.10;99.90;;;;;;4978744;28;20057;-74
2022/03/21 06:54:43;;;;;;;47.72;27.83;;;3.10;99.90;;;;;;4954230;28;142980;-74
2022/03/21 06:57:10;;;;;;;52.83;29.05;;;3.20;99.90;;;;;;4954237;28;20054;-75
2022/03/21 06:59:36;;;;;;;48.10;27.70;;;3.30;99.90;;;;;;4950451;28;228485;-75
2022/03/21 07:02:03;;;;;;;45.75;28.70;;;3.40;99.90;;;;;;4975684;28;20053;-75
2022/03/21 07:04:29;;;;;;;48.75;27.55;;;3.50;99.90;;;;;;4923683;28;108649;-76
2022/03/21 07:06:55;;;;;;;49.15;28.05;;;3.60;99.90;;;;;;4995709;28;20562;-75
2022/03/21 07:09:21;;;;;;;48.67;26.33;;;3.60;99.90;;;;;;4962058;28;194469;-74
2022/03/21 07:11:47;;;;;;;50.53;28.23;;;3.70;99.90;;;;;;4980157;28;20046;-75
2022/03/21 07:14:13;;;;;;;49.67;27.33;;;3.80;99.90;;;;;;4992675;28;20042;-75
2022/03/21 07:16:39;;;;;;;46.42;26.17;;;3.90;99.90;;;;;;4966085;28;20510;-75
2022/03/21 07:19:06;;;;;;;48.00;26.67;;;4.00;99.90;;;;;;4982974;28;271885;-75
2022/03/21 07:21:33;;;;;;;41.58;26.05;;;4.00;99.90;;;;;;4918727;28;20038;-75
2022/03/21 07:23:59;;;;;;;43.37;26.90;;;4.10;99.90;;;;;;4979972;28;250596;-74
2022/03/21 07:26:25;;;;;;;41.38;24.02;;;4.20;99.90;;;;;;4957180;28;20042;-74
2022/03/21 07:28:51;;;;;;;39.00;24.63;;;4.30;99.90;;;;;;4976774;28;259934;-74
2022/03/21 07:31:18;;;;;;;38.08;22.50;;;4.40;99.90;;;;;;4954627;28;20058;-74
2022/03/21 07:33:44;;;;;;;36.00;23.63;;;4.60;99.90;;;;;;4996486;28;20065;-74
2022/03/21 07:36:10;;;;;;;35.70;21.77;;;4.70;99.90;;;;;;4928512;28;153625;-74
2022/03/21 07:38:37;;;;;;;33.00;21.73;;;4.80;99.90;;;;;;4990174;28;20053;-75
2022/03/21 07:41:07;;;;;;;36.28;22.77;;;4.90;99.90;;;;;;4950702;28;95162;-75
2022/03/21 07:43:36;;;;;;;40.60;21.60;;;5.00;99.90;;;;;;4984969;28;20431;-75
2022/03/21 07:48:50;;;;;;;35.80;22.33;;;5.10;99.90;;;;;;4981405;28;271923;-74
2022/03/21 07:51:16;;;;;;;34.17;20.63;;;5.20;99.90;;;;;;4951877;28;20309;-74
2022/03/21 07:56:08;;;;;;;34.15;23.15;;;5.40;99.90;;;;;;4963889;23;270154;-84
2022/03/21 07:58:35;;;;;;;34.97;22.75;;;5.50;99.90;;;;;;4988298;28;20406;-84
2022/03/21 08:01:03;;;;;;;35.95;22.17;;;5.50;99.90;;;;;;4926642;28;223976;-84
2022/03/21 08:03:29;;;;;;;35.38;23.85;;;5.80;99.90;;;;;;4975084;28;20050;-83
2022/03/21 08:05:59;;;;;;;35.40;22.60;;;6.20;99.90;;;;;;4935013;28;227754;-83
2022/03/21 08:08:26;;;;;;;35.58;21.90;;;6.80;99.90;;;;;;4985607;28;20049;-84
2022/03/21 08:10:53;;;;;;;31.67;20.90;;;7.60;99.90;;;;;;4952894;28;109472;-83
2022/03/21 08:13:20;;;;;;;31.42;20.27;;;8.50;99.90;;;;;;4993115;28;20058;-83
2022/03/21 08:15:46;;;;;;;29.27;19.10;;;9.10;99.90;;;;;;4939089;28;35737;-83
2022/03/21 08:18:13;;;;;;;31.60;19.80;;;8.80;99.90;;;;;;5013460;28;20046;-83
2022/03/21 08:20:43;;;;;;;30.75;19.65;;;8.70;99.90;;;;;;4968764;28;165626;-83
2022/03/21 08:23:11;;;;;;;28.75;20.65;;;9.20;99.90;;;;;;5012831;28;20030;-83
2022/03/21 08:25:39;;;;;;;31.65;19.90;;;10.10;99.90;;;;;;4939877;28;139386;-84
2022/03/21 08:28:07;;;;;;;26.88;18.60;;;10.90;99.90;;;;;;5004201;28;20486;-83
2022/03/21 08:30:35;;;;;;;27.63;18.83;;;11.50;99.90;;;;;;4954847;28;169936;-83
2022/03/21 08:33:07;;;;;;;27.67;18.27;;;12.10;99.90;;;;;;4983659;28;20062;-83
2022/03/21 08:35:38;;;;;;;25.48;16.85;;;12.60;99.90;;;;;;4947565;28;44219;-83
2022/03/21 08:38:09;;;;;;;24.27;17.23;;;13.00;99.90;;;;;;4995607;28;20058;-83
2022/03/21 08:40:36;;;;;;;27.20;16.85;;;13.40;99.90;;;;;;4944977;28;156131;-83
2022/03/21 08:43:03;;;;;;;24.88;15.90;;;13.50;99.90;;;;;;4992316;28;20419;-83
2022/03/21 08:45:30;;;;;;;26.83;17.00;;;13.50;99.90;;;;;;4963989;28;93455;-83
2022/03/21 08:47:56;;;;;;;23.30;15.70;;;13.80;99.90;;;;;;4997750;28;20061;-83
2022/03/21 08:50:22;;;;;;;25.08;16.67;;;14.10;99.90;;;;;;4941778;28;41731;-83
2022/03/21 08:52:48;;;;;;;24.10;15.57;;;14.40;99.90;;;;;;4995681;28;20324;-83
2022/03/21 08:55:14;;;;;;;26.02;16.40;;;14.60;97.80;;;;;;4950232;28;100890;-82
2022/03/21 08:57:40;;;;;;;24.90;16.92;;;14.70;99.90;;;;;;4975944;28;20045;-83
2022/03/21 09:00:09;;;;;;;23.25;16.40;;;15.00;99.90;;;;;;4940470;28;181866;-83
2022/03/21 09:02:36;;;;;;;21.10;15.73;;;15.20;99.90;;;;;;4995676;28;20529;-83
2022/03/21 09:05:05;;;;;;;22.58;15.57;;;15.40;99.90;;;;;;4943024;28;126932;-83
2022/03/21 09:07:32;;;;;;;23.80;16.38;;;15.70;99.40;;;;;;4984120;28;20054;-83
2022/03/21 09:09:58;;;;;;;26.83;16.58;;;15.90;98.80;;;;;;4938368;28;143721;-83
2022/03/21 09:12:24;;;;;;;28.80;17.13;;;16.10;97.20;;;;;;4977116;28;20049;-82
2022/03/21 09:14:50;;;;;;;21.85;16.23;;;16.20;90.50;;;;;;4937687;28;92872;-83
2022/03/21 09:17:17;;;;;;;23.98;16.67;;;16.10;91.20;;;;;;4990031;28;20042;-83
2022/03/21 09:19:43;;;;;;;24.77;16.60;;;16.30;95.20;;;;;;4962652;28;22914;-84
2022/03/21 09:22:10;;;;;;;22.10;16.33;;;16.70;94.00;;;;;;4994527;28;20054;-84
2022/03/21 09:24:36;;;;;;;23.02;16.20;;;16.90;91.60;;;;;;4946133;28;20055;-84
2022/03/21 09:27:02;;;;;;;23.30;16.23;;;17.00;92.30;;;;;;4985122;28;20454;-84
2022/03/21 09:29:28;;;;;;;23.42;16.10;;;17.30;90.10;;;;;;4955553;28;135893;-84
2022/03/21 09:31:55;;;;;;;21.55;15.18;;;17.30;86.40;;;;;;4969939;28;20057;-84
2022/03/21 09:34:21;;;;;;;24.17;16.98;;;17.50;85.20;;;;;;4979919;28;177171;-86
2022/03/21 09:36:48;;;;;;;21.27;15.98;;;17.80;88.00;;;;;;4980956;28;20061;-84
2022/03/21 09:39:14;;;;;;;23.33;16.02;;;18.40;88.40;;;;;;4974898;28;183721;-84
2022/03/21 09:41:40;;;;;;;23.77;15.57;;;18.50;66.20;;;;;;4957622;28;20050;-83
2022/03/21 09:44:09;;;;;;;22.58;15.82;;;17.90;73.40;;;;;;5001385;28;273180;-84
2022/03/21 09:46:38;;;;;;;22.38;16.23;;;18.20;74.30;;;;;;4953839;28;20607;-84
2022/03/21 09:49:07;;;;;;;22.40;15.57;;;18.50;74.30;;;;;;4982689;28;266058;-84
2022/03/21 09:51:33;;;;;;;23.02;15.75;;;18.80;67.40;;;;;;4972106;28;20042;-84
2022/03/21 09:54:01;;;;;;;22.50;16.00;;;18.80;65.40;;;;;;4968290;28;263982;-84
2022/03/21 09:56:28;;;;;;;23.20;16.98;;;18.70;66.90;;;;;;4965450;28;20050;-84
2022/03/21 09:59:01;;;;;;;21.63;15.80;;;18.70;68.10;;;;;;5001047;28;252711;-85
2022/03/21 10:01:29;;;;;;;21.83;16.35;;;19.10;67.50;;;;;;4971893;28;20435;-83
2022/03/21 10:03:56;;;;;;;21.33;15.60;;;19.50;69.10;;;;;;4976128;28;249035;-82
2022/03/21 10:06:40;;;;;;;24.17;15.95;;;19.80;64.10;;;;;;4949364;28;20519;-84
2022/03/21 10:09:15;;;;;;;24.13;16.55;;;20.10;64.90;;;;;;4982919;28;273975;-84
2022/03/21 10:11:53;;;;;;;23.27;16.30;;;20.50;65.40;;;;;;4944253;28;20057;-84
2022/03/21 10:14:33;;;;;;;24.77;17.33;;;20.90;64.10;;;;;;4979126;28;178927;-85
2022/03/21 10:17:01;;;;;;;;;;;21.30;61.00;;;;;;4960244;28;20053;-83
2022/03/21 10:19:39;;;;;;;21.17;16.05;;;21.00;50.70;;;;;;4964630;28;40471;-84
2022/03/21 10:22:08;;;;;;;23.67;16.60;;;20.70;55.00;;;;;;4991339;28;20053;-84
2022/03/21 10:24:45;;;;;;;22.55;16.73;;;20.60;56.90;;;;;;4963792;28;87679;-86
2022/03/21 10:27:33;;;;;;;23.23;16.70;;;20.10;52.50;;;;;;4975590;28;20427;-84
2022/03/21 10:30:03;;;;;;;21.08;16.08;;;20.10;51.30;;;;;;4958914;28;258611;-84
2022/03/21 10:32:31;;;;;;;25.77;16.45;;;20.20;55.60;;;;;;4993735;28;20057;-84
2022/03/21 10:35:23;;;;;;;23.55;15.30;;;20.50;53.20;;;;;;4962490;28;214882;-84
2022/03/21 10:37:55;;;;;;;20.92;15.65;;;20.70;52.00;;;;;;4999736;28;20073;-84
2022/03/21 10:40:34;;;;;;;22.10;16.38;;;21.00;52.90;;;;;;4945318;28;87686;-85
2022/03/21 10:43:13;;;;;;;20.38;15.70;;;20.90;45.90;;;;;;5000348;28;20049;-85
2022/03/21 10:45:41;;;;;;;22.10;15.80;;;20.40;48.60;;;;;;4951306;28;252063;-83
2022/03/21 10:48:10;;;;;;;20.00;15.50;;;20.00;49.50;;;;;;5001497;28;20045;-83
2022/03/21 10:50:41;;;;;;;20.40;15.15;;;20.20;51.00;;;;;;4957073;28;180801;-84
2022/03/21 10:53:28;;;;;;;22.08;14.63;;;20.70;51.20;;;;;;5005045;28;20037;-84
2022/03/21 10:56:02;;;;;;;19.23;14.20;;;21.40;49.90;;;;;;4941210;28;183738;-84
2022/03/21 10:58:40;;;;;;;19.77;13.98;;;22.20;51.20;;;;;;4994743;28;20057;-84
2022/03/21 11:01:14;;;;;;;19.65;14.27;;;22.70;47.20;;;;;;4936230;28;177441;-84
2022/03/21 11:03:41;;;;;;;22.75;14.98;;;23.00;47.50;;;;;;4992989;28;20045;-85
2022/03/21 11:06:09;;;;;;;22.08;14.82;;;23.30;47.30;;;;;;4932679;28;210463;-85
2022/03/21 11:08:36;;;;;;;23.77;14.52;;;23.40;45.70;;;;;;5004416;28;20073;-85
2022/03/21 11:11:04;;;;;;;21.80;14.35;;;23.50;44.90;;;;;;4951329;28;39037;-84
2022/03/21 11:13:31;;;;;;;20.50;13.73;;;23.70;44.50;;;;;;4981033;28;20053;-84
2022/03/21 11:15:58;;;;;;;19.20;14.35;;;23.90;43.00;;;;;;4958559;28;108366;-85
2022/03/21 11:18:27;;;;;;;18.38;13.30;;;24.20;42.40;;;;;;4982922;28;20776;-84
2022/03/21 11:20:53;;;;;;;20.55;14.07;;;24.30;42.50;;;;;;4945567;28;77589;-85
2022/03/21 11:23:21;;;;;;;20.13;14.88;;;24.10;41.60;;;;;;5004071;28;20058;-85
2022/03/21 11:25:56;;;;;;;19.75;14.20;;;24.10;40.80;;;;;;4928571;28;84515;-84
2022/03/21 11:28:50;;;;;;;20.02;14.40;;;24.20;41.30;;;;;;5005248;28;20053;-84
2022/03/21 11:31:35;;;;;;;20.92;14.40;;;24.30;40.20;;;;;;4937864;28;20045;-84
2022/03/21 11:34:22;;;;;;;19.27;13.43;;;24.50;40.60;;;;;;5001112;28;250982;-84
2022/03/21 11:36:50;;;;;;;19.85;14.43;;;24.80;40.10;;;;;;4949986;28;20050;-84
2022/03/21 11:39:17;;;;;;;22.17;14.68;;;25.00;39.50;;;;;;4970834;28;164287;-86
2022/03/21 11:42:10;;;;;;;17.77;13.93;;;25.10;38.60;;;;;;4958414;28;20050;-85
2022/03/21 11:44:38;;;;;;;19.98;13.48;;;25.20;39.70;;;;;;4956360;28;152862;-85
2022/03/21 11:47:24;;;;;;;21.50;13.95;;;25.60;40.90;;;;;;4982818;28;20046;-84
2022/03/21 11:49:52;;;;;;;21.65;13.93;;;26.20;39.40;;;;;;4948427;28;20492;-85
2022/03/21 11:52:18;;;;;;;20.05;13.43;;;26.40;38.20;;;;;;5003227;28;20557;-85
2022/03/21 11:54:45;;;;;;;19.58;13.48;;;26.30;38.80;;;;;;4966955;28;97509;-85
2022/03/21 11:57:17;;;;;;;19.70;13.35;;;26.30;38.20;;;;;;4979093;28;20049;-85
2022/03/21 11:59:43;;;;;;;19.17;13.88;;;26.50;36.80;;;;;;4963862;28;20466;-84
2022/03/21 12:02:10;;;;;;;23.55;13.65;;;26.50;38.30;;;;;;4988822;28;20053;-83
2022/03/21 12:04:37;;;;;;;18.42;13.77;;;26.40;37.70;;;;;;4946001;28;148394;-83
2022/03/21 12:07:13;;;;;;;22.17;13.90;;;26.30;37.40;;;;;;4980280;28;20093;-83
2022/03/21 12:09:43;;;;;;;19.90;13.52;;;26.60;33.80;;;;;;4948779;28;83105;-83
2022/03/21 12:12:13;;;;;;;;;;;26.50;36.80;;;;;;4990173;28;20057;-84
2022/03/21 12:14:40;;;;;;;19.65;14.57;;;26.60;36.80;;;;;;4971790;28;86188;-83
2022/03/21 12:17:13;;;;;;;23.20;14.68;;;26.70;36.70;;;;;;5000808;28;20054;-83
2022/03/21 12:19:45;;;;;;;19.85;14.57;;;27.00;36.30;;;;;;4946121;28;232990;-83
2022/03/21 12:22:30;;;;;;;22.95;15.05;;;27.30;35.20;;;;;;4992623;28;20054;-84
2022/03/21 12:25:11;;;;;;;20.88;13.95;;;27.40;33.60;;;;;;4961400;28;57964;-84
2022/03/21 12:27:46;;;;;;;20.23;14.10;;;27.30;35.60;;;;;;4989685;28;20055;-83
2022/03/21 12:30:26;;;;;;;17.50;13.00;;;27.00;35.00;;;;;;4962759;28;146934;-83
2022/03/21 12:32:59;;;;;;;18.58;14.07;;;26.90;35.50;;;;;;5005165;28;20069;-83
2022/03/21 12:35:31;;;;;;;20.75;13.98;;;26.70;35.60;;;;;;4960258;28;190549;-83
2022/03/21 12:38:05;;;;;;;19.15;13.90;;;26.30;35.50;;;;;;4999824;28;20057;-83
2022/03/21 12:40:50;;;;;;;20.13;14.23;;;26.60;36.20;;;;;;4946580;28;206162;-84
2022/03/21 12:43:18;;;;;;;18.42;13.30;;;27.00;36.40;;;;;;4988073;28;20050;-84
2022/03/21 12:45:46;;;;;;;18.20;13.43;;;27.70;36.10;;;;;;4959955;28;66753;-84
2022/03/21 12:48:17;;;;;;;20.75;14.32;;;28.00;36.20;;;;;;4986979;28;20480;-84
2022/03/21 12:50:47;;;;;;;21.55;14.30;;;28.10;34.70;;;;;;4962810;28;201260;-84
2022/03/21 12:53:19;;;;;;;;;;;28.10;35.30;;;;;;4989371;28;20046;-84
2022/03/21 12:55:46;;;;;;;18.70;14.35;;;28.00;35.40;;;;;;4950874;28;264661;-84
2022/03/21 12:58:14;;;;;;;20.85;14.07;;;28.10;35.00;;;;;;4998232;28;20049;-84
2022/03/21 13:00:46;;;;;;;16.42;13.38;;;27.40;34.90;;;;;;4944073;28;195963;-85
2022/03/21 13:03:14;;;;;;;21.42;13.52;;;27.20;36.50;;;;;;4994117;28;20045;-84